Airfield :
LOGIN :

Register | Disclaimer

   EN    FR    IT 

 










Legend :    VFR   Marginal VFR   IFR   Intensive IFR   Very Intensive IFR
Visi :
Ceiling :
>= 8 km
>= 3000ft
5 to 8 km
1000 to 3000 ft
1500m to 5 km
500 to 1000 ft
800 to 1500m
200 to 500 ft
< 800m
< 200 ft
Symbols :   Thunderstorms  Fog  Heavy snow  Heavy precipitations  Wind > 20 kt
SIGMETs :     Misc.  Thunderstorms  Icing  Turbulence  Mountain Waves  Volcanic Ashes






- Airport Elevation : 72 ft
- IATA code : UDE


EHVK - Volkel Airbase

CURRENT METAR :
  • 150255Z AUTO 04007KT 9999 OVC250 03/01 Q1001 BLU

EXPIRED METARs :
  • 150225Z AUTO 04007KT 9999 OVC260 03/01 Q1001 BLU
  • 150155Z AUTO 04007KT 9999 BKN170 OVC250 03/02 Q1001 BLU
  • 150125Z AUTO 06005KT 9000 BR OVC190 02/01 Q1002 BLU
  • 150055Z AUTO 04006KT 9999 OVC250 03/02 Q1002 BLU
  • 150025Z AUTO 03005KT 9999 OVC220 04/02 Q1002 BLU

TAF TAF EHVK
Valid from the 15 at 02:00 until the 15 at 14:00 UTC


150141Z 1502/1514 04005KT CAVOK
BECMG 1504/1507 06010KT
PROB40
TEMPO 1508/1511 FEW008 BKN010
BECMG 1512/1514 13007KT SCT018



MET'MAP, your aeronautical weather chart ! - Copyright ORBIFLY December 2007 - Disclaimer

ORBIFLY MET'MAP TEAM :

Programming & Development : Alexandra Zaïnal
Concept & Development : Baudouin d'Aumeries
Co-Development & Prog : Marc-Olivier Méhu
Technical & hardware support : Manuel Goepfert

Contact : metmap@orbifly.com




SOURCES & CREDITS :

   NOAA